sensor_id;sensor_type;location;lat;lon;timestamp;pressure;altitude;pressure_sealevel;temperature;humidity
63691;BME280;49837;57.280;27.070;2023-04-28T00:00:22;100121.72;;;2.18;89.37
63691;BME280;49837;57.280;27.070;2023-04-28T00:01:22;100129.45;;;2.15;89.64
63691;BME280;49837;57.280;27.070;2023-04-28T00:02:23;100128.3;;;2.14;89.89
63691;BME280;49837;57.280;27.070;2023-04-28T00:03:23;100131.48;;;2.07;90.28
63691;BME280;49837;57.280;27.070;2023-04-28T00:04:23;100133.27;;;2.02;90.42
63691;BME280;49837;57.280;27.070;2023-04-28T00:05:24;100126.68;;;2.03;87.7
63691;BME280;49837;57.280;27.070;2023-04-28T00:06:24;100130.76;;;2.11;87.87
63691;BME280;49837;57.280;27.070;2023-04-28T00:07:24;100131.59;;;2.16;89.44
63691;BME280;49837;57.280;27.070;2023-04-28T00:08:25;100123.31;;;2.22;86.76
63691;BME280;49837;57.280;27.070;2023-04-28T00:09:25;100128.17;;;2.24;85.66
63691;BME280;49837;57.280;27.070;2023-04-28T00:10:25;100130.57;;;2.26;83.89
63691;BME280;49837;57.280;27.070;2023-04-28T00:11:26;100131.38;;;2.22;83.23
63691;BME280;49837;57.280;27.070;2023-04-28T00:12:26;100133.02;;;2.23;83.68
63691;BME280;49837;57.280;27.070;2023-04-28T00:13:27;100134.84;;;2.25;83.02
63691;BME280;49837;57.280;27.070;2023-04-28T00:14:27;100134.5;;;2.27;83.36
63691;BME280;49837;57.280;27.070;2023-04-28T00:15:27;100137.41;;;2.28;85.56
63691;BME280;49837;57.280;27.070;2023-04-28T00:16:28;100136.4;;;2.25;85.72
63691;BME280;49837;57.280;27.070;2023-04-28T00:17:28;100138.8;;;2.27;86.22
63691;BME280;49837;57.280;27.070;2023-04-28T00:18:28;100141.94;;;2.29;86.47
63691;BME280;49837;57.280;27.070;2023-04-28T00:19:29;100142.84;;;2.28;87.36
63691;BME280;49837;57.280;27.070;2023-04-28T00:20:29;100142.34;;;2.27;87.81
63691;BME280;49837;57.280;27.070;2023-04-28T00:21:29;100141.84;;;2.26;88.08
63691;BME280;49837;57.280;27.070;2023-04-28T00:22:30;100140.85;;;2.24;87.3
63691;BME280;49837;57.280;27.070;2023-04-28T00:23:30;100138.94;;;2.25;87.65
63691;BME280;49837;57.280;27.070;2023-04-28T00:24:30;100137.3;;;2.25;88.22
63691;BME280;49837;57.280;27.070;2023-04-28T00:25:31;100141.2;;;2.29;88.82
63691;BME280;49837;57.280;27.070;2023-04-28T00:26:31;100138.72;;;2.28;88.48
63691;BME280;49837;57.280;27.070;2023-04-28T00:27:32;100139.78;;;2.29;89.1
63691;BME280;49837;57.280;27.070;2023-04-28T00:28:32;100138.37;;;2.23;89.78
63691;BME280;49837;57.280;27.070;2023-04-28T00:29:32;100141.02;;;2.23;89.37
63691;BME280;49837;57.280;27.070;2023-04-28T00:30:32;100143.66;;;2.26;89.5
63691;BME280;49837;57.280;27.070;2023-04-28T00:31:33;100144.55;;;2.27;89.27
63691;BME280;49837;57.280;27.070;2023-04-28T00:32:33;100147.19;;;2.25;89.22
63691;BME280;49837;57.280;27.070;2023-04-28T00:33:34;100145.52;;;2.2;89.19
63691;BME280;49837;57.280;27.070;2023-04-28T00:34:34;100146.9;;;2.17;88.88
63691;BME280;49837;57.280;27.070;2023-04-28T00:35:34;100151.06;;;2.09;88.55
63691;BME280;49837;57.280;27.070;2023-04-28T00:36:35;100151.12;;;2.04;88.76
63691;BME280;49837;57.280;27.070;2023-04-28T00:37:36;100149.41;;;2.04;89.07
63691;BME280;49837;57.280;27.070;2023-04-28T00:38:35;100151.09;;;1.94;89.31
63691;BME280;49837;57.280;27.070;2023-04-28T00:39:36;100151.64;;;1.89;89.78
63691;BME280;49837;57.280;27.070;2023-04-28T00:40:37;100150.72;;;1.91;90.19
63691;BME280;49837;57.280;27.070;2023-04-28T00:41:36;100151.55;;;1.92;89.99
63691;BME280;49837;57.280;27.070;2023-04-28T00:42:37;100152.94;;;1.89;90.26
63691;BME280;49837;57.280;27.070;2023-04-28T00:44:40;100158.48;;;1.97;89.5
63691;BME280;49837;57.280;27.070;2023-04-28T00:45:40;100159.1;;;2.02;89.01
63691;BME280;49837;57.280;27.070;2023-04-28T00:46:40;100156.06;;;2.05;88.72
63691;BME280;49837;57.280;27.070;2023-04-28T00:47:41;100158.48;;;2.09;88.57
63691;BME280;49837;57.280;27.070;2023-04-28T00:48:41;100152.16;;;2.09;87.67
63691;BME280;49837;57.280;27.070;2023-04-28T00:49:42;100155.55;;;2.16;88.55
63691;BME280;49837;57.280;27.070;2023-04-28T00:50:46;100156.12;;;2.18;88.89
63691;BME280;49837;57.280;27.070;2023-04-28T00:51:44;100156.8;;;2.2;88.63
63691;BME280;49837;57.280;27.070;2023-04-28T00:52:44;100157.05;;;2.19;87.85
63691;BME280;49837;57.280;27.070;2023-04-28T00:53:45;100155.2;;;2.15;88.51
63691;BME280;49837;57.280;27.070;2023-04-28T00:54:45;100159.81;;;2.12;88.68
63691;BME280;49837;57.280;27.070;2023-04-28T00:55:46;100159.3;;;2.13;85.74
63691;BME280;49837;57.280;27.070;2023-04-28T00:56:46;100155.87;;;2.16;86.68
63691;BME280;49837;57.280;27.070;2023-04-28T00:57:46;100157.77;;;2.18;87.99
63691;BME280;49837;57.280;27.070;2023-04-28T00:58:46;100157.47;;;2.22;86.67
63691;BME280;49837;57.280;27.070;2023-04-28T00:59:47;100155.67;;;2.25;83.36
63691;BME280;49837;57.280;27.070;2023-04-28T01:00:47;100157.66;;;2.29;83.52
63691;BME280;49837;57.280;27.070;2023-04-28T01:01:48;100159.3;;;2.28;84.84
63691;BME280;49837;57.280;27.070;2023-04-28T01:02:49;100161.74;;;2.24;85.92
63691;BME280;49837;57.280;27.070;2023-04-28T01:03:48;100160.0;;;2.22;85.74
63691;BME280;49837;57.280;27.070;2023-04-28T01:04:49;100159.83;;;2.22;85.48
63691;BME280;49837;57.280;27.070;2023-04-28T01:05:49;100166.02;;;2.22;84.95
63691;BME280;49837;57.280;27.070;2023-04-28T01:06:51;100162.3;;;2.2;84.77
63691;BME280;49837;57.280;27.070;2023-04-28T01:07:50;100164.36;;;2.19;84.41
63691;BME280;49837;57.280;27.070;2023-04-28T01:08:50;100170.02;;;2.16;84.35
63691;BME280;49837;57.280;27.070;2023-04-28T01:09:50;100169.19;;;2.1;84.27
63691;BME280;49837;57.280;27.070;2023-04-28T01:10:51;100167.61;;;2.08;84.76
63691;BME280;49837;57.280;27.070;2023-04-28T01:11:51;100168.81;;;2.03;86.2
63691;BME280;49837;57.280;27.070;2023-04-28T01:12:51;100172.23;;;1.95;87.62
63691;BME280;49837;57.280;27.070;2023-04-28T01:13:52;100169.45;;;2.0;87.84
63691;BME280;49837;57.280;27.070;2023-04-28T01:14:52;100169.94;;;1.99;88.25
63691;BME280;49837;57.280;27.070;2023-04-28T01:15:54;100173.62;;;1.98;88.55
63691;BME280;49837;57.280;27.070;2023-04-28T01:16:53;100175.91;;;1.94;89.43
63691;BME280;49837;57.280;27.070;2023-04-28T01:17:54;100170.98;;;1.96;89.2
63691;BME280;49837;57.280;27.070;2023-04-28T01:18:53;100171.41;;;1.99;88.68
63691;BME280;49837;57.280;27.070;2023-04-28T01:19:54;100174.21;;;2.0;88.0
63691;BME280;49837;57.280;27.070;2023-04-28T01:20:54;100174.39;;;2.0;87.83
63691;BME280;49837;57.280;27.070;2023-04-28T01:21:54;100179.31;;;1.98;87.54
63691;BME280;49837;57.280;27.070;2023-04-28T01:22:55;100173.73;;;1.97;87.38
63691;BME280;49837;57.280;27.070;2023-04-28T01:23:56;100173.8;;;1.99;87.5
63691;BME280;49837;57.280;27.070;2023-04-28T01:24:56;100174.14;;;2.01;87.95
63691;BME280;49837;57.280;27.070;2023-04-28T01:25:56;100177.98;;;1.97;88.28
63691;BME280;49837;57.280;27.070;2023-04-28T01:26:56;100181.2;;;1.95;88.53
63691;BME280;49837;57.280;27.070;2023-04-28T01:27:57;100182.25;;;1.95;88.79
63691;BME280;49837;57.280;27.070;2023-04-28T01:28:57;100178.06;;;1.97;88.71
63691;BME280;49837;57.280;27.070;2023-04-28T01:29:57;100172.48;;;1.97;88.78
63691;BME280;49837;57.280;27.070;2023-04-28T01:30:58;100171.64;;;1.96;89.09
63691;BME280;49837;57.280;27.070;2023-04-28T01:31:58;100174.44;;;1.93;89.49
63691;BME280;49837;57.280;27.070;2023-04-28T01:32:58;100175.72;;;1.91;89.74
63691;BME280;49837;57.280;27.070;2023-04-28T01:33:59;100173.11;;;1.88;88.35
63691;BME280;49837;57.280;27.070;2023-04-28T01:34:59;100174.11;;;1.95;87.43
63691;BME280;49837;57.280;27.070;2023-04-28T01:35:59;100172.0;;;1.85;87.11
63691;BME280;49837;57.280;27.070;2023-04-28T01:37:00;100172.1;;;1.85;86.46
63691;BME280;49837;57.280;27.070;2023-04-28T01:38:00;100173.83;;;1.73;87.11
63691;BME280;49837;57.280;27.070;2023-04-28T01:39:00;100170.42;;;1.67;87.17
63691;BME280;49837;57.280;27.070;2023-04-28T01:40:01;100172.44;;;1.74;86.36
63691;BME280;49837;57.280;27.070;2023-04-28T01:41:01;100174.62;;;1.83;86.18
63691;BME280;49837;57.280;27.070;2023-04-28T01:42:02;100171.73;;;1.82;86.01
63691;BME280;49837;57.280;27.070;2023-04-28T01:43:02;100174.72;;;1.83;85.76
63691;BME280;49837;57.280;27.070;2023-04-28T01:44:03;100176.94;;;1.85;86.19
63691;BME280;49837;57.280;27.070;2023-04-28T01:45:03;100178.14;;;1.92;85.88
63691;BME280;49837;57.280;27.070;2023-04-28T01:46:03;100176.82;;;1.93;86.38
63691;BME280;49837;57.280;27.070;2023-04-28T01:47:04;100176.01;;;1.93;85.31
63691;BME280;49837;57.280;27.070;2023-04-28T01:48:04;100173.53;;;2.07;83.01
63691;BME280;49837;57.280;27.070;2023-04-28T01:49:04;100173.25;;;2.19;82.14
63691;BME280;49837;57.280;27.070;2023-04-28T01:50:05;100170.37;;;2.22;82.19
63691;BME280;49837;57.280;27.070;2023-04-28T01:51:05;100170.48;;;2.24;82.04
63691;BME280;49837;57.280;27.070;2023-04-28T01:52:05;100174.27;;;2.26;82.53
63691;BME280;49837;57.280;27.070;2023-04-28T01:53:05;100178.69;;;2.22;82.22
63691;BME280;49837;57.280;27.070;2023-04-28T01:54:06;100175.64;;;2.22;82.4
63691;BME280;49837;57.280;27.070;2023-04-28T01:55:06;100176.31;;;2.2;84.06
63691;BME280;49837;57.280;27.070;2023-04-28T01:56:06;100175.33;;;2.24;81.94
63691;BME280;49837;57.280;27.070;2023-04-28T01:57:07;100179.09;;;2.22;82.15
63691;BME280;49837;57.280;27.070;2023-04-28T01:58:07;100173.33;;;2.15;83.71
63691;BME280;49837;57.280;27.070;2023-04-28T01:59:07;100175.84;;;2.14;82.86
63691;BME280;49837;57.280;27.070;2023-04-28T02:00:08;100174.7;;;2.11;83.7
63691;BME280;49837;57.280;27.070;2023-04-28T02:01:08;100177.81;;;2.07;84.5
63691;BME280;49837;57.280;27.070;2023-04-28T02:02:08;100177.54;;;2.04;84.23
63691;BME280;49837;57.280;27.070;2023-04-28T02:03:09;100180.23;;;1.98;84.89
63691;BME280;49837;57.280;27.070;2023-04-28T02:04:09;100179.78;;;1.92;85.62
63691;BME280;49837;57.280;27.070;2023-04-28T02:05:09;100180.65;;;1.85;85.95
63691;BME280;49837;57.280;27.070;2023-04-28T02:06:10;100180.23;;;1.72;86.87
63691;BME280;49837;57.280;27.070;2023-04-28T02:07:10;100179.25;;;1.62;87.68
63691;BME280;49837;57.280;27.070;2023-04-28T02:08:10;100184.73;;;1.58;87.78
63691;BME280;49837;57.280;27.070;2023-04-28T02:09:11;100184.15;;;1.55;88.21
63691;BME280;49837;57.280;27.070;2023-04-28T02:10:12;100181.55;;;1.48;88.53
63691;BME280;49837;57.280;27.070;2023-04-28T02:11:12;100183.91;;;1.44;88.44
63691;BME280;49837;57.280;27.070;2023-04-28T02:12:12;100186.55;;;1.44;88.54
63691;BME280;49837;57.280;27.070;2023-04-28T02:13:12;100184.14;;;1.44;88.61
63691;BME280;49837;57.280;27.070;2023-04-28T02:14:13;100186.53;;;1.43;88.56
63691;BME280;49837;57.280;27.070;2023-04-28T02:15:13;100185.13;;;1.42;88.45
63691;BME280;49837;57.280;27.070;2023-04-28T02:16:13;100185.44;;;1.39;88.5
63691;BME280;49837;57.280;27.070;2023-04-28T02:17:14;100188.79;;;1.38;88.12
63691;BME280;49837;57.280;27.070;2023-04-28T02:18:14;100188.09;;;1.45;88.09
63691;BME280;49837;57.280;27.070;2023-04-28T02:19:14;100188.52;;;1.45;87.81
63691;BME280;49837;57.280;27.070;2023-04-28T02:20:15;100186.95;;;1.46;88.13
63691;BME280;49837;57.280;27.070;2023-04-28T02:21:15;100188.56;;;1.41;88.45
63691;BME280;49837;57.280;27.070;2023-04-28T02:22:15;100186.38;;;1.36;89.07
63691;BME280;49837;57.280;27.070;2023-04-28T02:23:16;100190.3;;;1.33;89.4
63691;BME280;49837;57.280;27.070;2023-04-28T02:24:16;100192.41;;;1.28;89.82
63691;BME280;49837;57.280;27.070;2023-04-28T02:25:16;100191.07;;;1.25;89.88
63691;BME280;49837;57.280;27.070;2023-04-28T02:26:17;100187.91;;;1.23;90.08
63691;BME280;49837;57.280;27.070;2023-04-28T02:27:17;100192.23;;;1.17;90.43
63691;BME280;49837;57.280;27.070;2023-04-28T02:28:18;100191.97;;;1.16;90.61
63691;BME280;49837;57.280;27.070;2023-04-28T02:29:18;100192.41;;;1.18;91.01
63691;BME280;49837;57.280;27.070;2023-04-28T02:30:18;100190.31;;;1.15;90.95
63691;BME280;49837;57.280;27.070;2023-04-28T02:31:18;100192.42;;;1.12;91.35
63691;BME280;49837;57.280;27.070;2023-04-28T02:32:19;100190.48;;;1.06;91.91
63691;BME280;49837;57.280;27.070;2023-04-28T02:33:19;100190.99;;;0.98;92.33
63691;BME280;49837;57.280;27.070;2023-04-28T02:34:19;100191.94;;;0.93;92.7
63691;BME280;49837;57.280;27.070;2023-04-28T02:35:20;100194.3;;;0.93;93.0
63691;BME280;49837;57.280;27.070;2023-04-28T02:36:20;100191.67;;;0.93;93.1
63691;BME280;49837;57.280;27.070;2023-04-28T02:37:21;100192.3;;;0.89;92.95
63691;BME280;49837;57.280;27.070;2023-04-28T02:38:21;100192.61;;;0.86;93.05
63691;BME280;49837;57.280;27.070;2023-04-28T02:39:21;100192.97;;;0.84;93.04
63691;BME280;49837;57.280;27.070;2023-04-28T02:40:22;100197.95;;;0.81;93.04
63691;BME280;49837;57.280;27.070;2023-04-28T02:41:22;100194.73;;;0.79;92.95
63691;BME280;49837;57.280;27.070;2023-04-28T02:42:22;100198.76;;;0.79;92.87
63691;BME280;49837;57.280;27.070;2023-04-28T02:43:22;100197.32;;;0.73;92.82
63691;BME280;49837;57.280;27.070;2023-04-28T02:44:23;100194.82;;;0.7;92.48
63691;BME280;49837;57.280;27.070;2023-04-28T02:45:23;100195.52;;;0.69;92.19
63691;BME280;49837;57.280;27.070;2023-04-28T02:46:24;100194.34;;;0.67;92.13
63691;BME280;49837;57.280;27.070;2023-04-28T02:47:24;100196.06;;;0.64;92.1
63691;BME280;49837;57.280;27.070;2023-04-28T02:48:24;100196.44;;;0.61;92.32
63691;BME280;49837;57.280;27.070;2023-04-28T02:49:25;100196.28;;;0.55;92.48
63691;BME280;49837;57.280;27.070;2023-04-28T02:50:25;100198.14;;;0.52;92.37
63691;BME280;49837;57.280;27.070;2023-04-28T02:51:25;100202.61;;;0.48;92.27
63691;BME280;49837;57.280;27.070;2023-04-28T02:52:26;100202.98;;;0.47;92.28
63691;BME280;49837;57.280;27.070;2023-04-28T02:53:26;100204.61;;;0.44;92.3
63691;BME280;49837;57.280;27.070;2023-04-28T02:54:26;100207.55;;;0.35;92.55
63691;BME280;49837;57.280;27.070;2023-04-28T02:55:27;100203.64;;;0.33;92.68
63691;BME280;49837;57.280;27.070;2023-04-28T02:56:27;100207.73;;;0.3;93.08
63691;BME280;49837;57.280;27.070;2023-04-28T02:57:27;100207.42;;;0.25;93.45
63691;BME280;49837;57.280;27.070;2023-04-28T02:58:28;100215.34;;;0.24;93.74
63691;BME280;49837;57.280;27.070;2023-04-28T02:59:28;100212.34;;;0.25;93.97
63691;BME280;49837;57.280;27.070;2023-04-28T03:00:29;100208.14;;;0.25;94.04
63691;BME280;49837;57.280;27.070;2023-04-28T03:01:29;100207.03;;;0.28;94.09
63691;BME280;49837;57.280;27.070;2023-04-28T03:02:29;100211.16;;;0.31;94.08
63691;BME280;49837;57.280;27.070;2023-04-28T03:03:29;100211.36;;;0.26;94.22
63691;BME280;49837;57.280;27.070;2023-04-28T03:04:30;100208.38;;;0.23;94.3
63691;BME280;49837;57.280;27.070;2023-04-28T03:05:30;100209.74;;;0.27;94.23
63691;BME280;49837;57.280;27.070;2023-04-28T03:06:30;100208.47;;;0.24;94.42
63691;BME280;49837;57.280;27.070;2023-04-28T03:07:31;100210.29;;;0.26;94.49
63691;BME280;49837;57.280;27.070;2023-04-28T03:08:31;100210.47;;;0.27;94.48
63691;BME280;49837;57.280;27.070;2023-04-28T03:09:31;100214.3;;;0.31;94.2
63691;BME280;49837;57.280;27.070;2023-04-28T03:10:32;100212.28;;;0.33;93.92
63691;BME280;49837;57.280;27.070;2023-04-28T03:11:32;100212.77;;;0.33;93.79
63691;BME280;49837;57.280;27.070;2023-04-28T03:12:32;100212.11;;;0.27;93.81
63691;BME280;49837;57.280;27.070;2023-04-28T03:13:33;100214.5;;;0.27;93.76
63691;BME280;49837;57.280;27.070;2023-04-28T03:14:33;100215.23;;;0.28;93.78
63691;BME280;49837;57.280;27.070;2023-04-28T03:15:33;100210.59;;;0.29;93.74
63691;BME280;49837;57.280;27.070;2023-04-28T03:16:34;100210.8;;;0.32;93.69
63691;BME280;49837;57.280;27.070;2023-04-28T03:17:34;100211.92;;;0.3;93.6
63691;BME280;49837;57.280;27.070;2023-04-28T03:18:34;100212.15;;;0.31;93.55
63691;BME280;49837;57.280;27.070;2023-04-28T03:19:35;100218.03;;;0.33;93.4
63691;BME280;49837;57.280;27.070;2023-04-28T03:20:35;100218.25;;;0.33;93.12
63691;BME280;49837;57.280;27.070;2023-04-28T03:21:35;100216.62;;;0.34;92.92
63691;BME280;49837;57.280;27.070;2023-04-28T03:22:36;100218.45;;;0.36;92.76
63691;BME280;49837;57.280;27.070;2023-04-28T03:23:36;100220.64;;;0.34;92.74
63691;BME280;49837;57.280;27.070;2023-04-28T03:24:36;100220.55;;;0.32;92.69
63691;BME280;49837;57.280;27.070;2023-04-28T03:25:37;100221.91;;;0.29;92.73
63691;BME280;49837;57.280;27.070;2023-04-28T03:26:37;100223.45;;;0.28;92.75
63691;BME280;49837;57.280;27.070;2023-04-28T03:27:37;100222.29;;;0.27;92.85
63691;BME280;49837;57.280;27.070;2023-04-28T03:28:38;100222.05;;;0.2;93.18
63691;BME280;49837;57.280;27.070;2023-04-28T03:29:38;100225.03;;;0.17;93.48
63691;BME280;49837;57.280;27.070;2023-04-28T03:30:38;100221.48;;;0.15;93.65
63691;BME280;49837;57.280;27.070;2023-04-28T03:31:39;100224.69;;;0.17;93.82
63691;BME280;49837;57.280;27.070;2023-04-28T03:32:39;100228.23;;;0.13;94.09
63691;BME280;49837;57.280;27.070;2023-04-28T03:33:39;100222.91;;;0.11;94.48
63691;BME280;49837;57.280;27.070;2023-04-28T03:34:40;100225.75;;;0.15;94.49
63691;BME280;49837;57.280;27.070;2023-04-28T03:35:40;100227.47;;;0.15;94.4
63691;BME280;49837;57.280;27.070;2023-04-28T03:36:40;100229.05;;;0.16;94.33
63691;BME280;49837;57.280;27.070;2023-04-28T03:37:41;100229.58;;;0.15;94.48
63691;BME280;49837;57.280;27.070;2023-04-28T03:38:42;100228.52;;;0.21;94.49
63691;BME280;49837;57.280;27.070;2023-04-28T03:39:41;100234.8;;;0.24;94.35
63691;BME280;49837;57.280;27.070;2023-04-28T03:40:42;100229.95;;;0.24;94.13
63691;BME280;49837;57.280;27.070;2023-04-28T03:41:42;100232.34;;;0.24;93.96
63691;BME280;49837;57.280;27.070;2023-04-28T03:42:42;100234.27;;;0.22;93.93
63691;BME280;49837;57.280;27.070;2023-04-28T03:43:43;100228.92;;;0.26;94.18
63691;BME280;49837;57.280;27.070;2023-04-28T03:44:43;100233.18;;;0.33;94.12
63691;BME280;49837;57.280;27.070;2023-04-28T03:45:43;100229.31;;;0.38;94.29
63691;BME280;49837;57.280;27.070;2023-04-28T03:46:44;100235.7;;;0.37;94.38
63691;BME280;49837;57.280;27.070;2023-04-28T03:47:44;100234.67;;;0.4;94.27
63691;BME280;49837;57.280;27.070;2023-04-28T03:48:44;100233.56;;;0.43;94.38
63691;BME280;49837;57.280;27.070;2023-04-28T03:49:45;100232.45;;;0.46;94.45
63691;BME280;49837;57.280;27.070;2023-04-28T03:50:45;100237.91;;;0.5;94.61
63691;BME280;49837;57.280;27.070;2023-04-28T03:51:45;100236.84;;;0.57;94.68
63691;BME280;49837;57.280;27.070;2023-04-28T03:52:46;100235.03;;;0.63;94.57
63691;BME280;49837;57.280;27.070;2023-04-28T03:53:46;100237.28;;;0.65;94.53
63691;BME280;49837;57.280;27.070;2023-04-28T03:54:46;100234.09;;;0.68;94.44
63691;BME280;49837;57.280;27.070;2023-04-28T03:55:47;100235.47;;;0.73;94.21
63691;BME280;49837;57.280;27.070;2023-04-28T03:56:47;100239.76;;;0.75;94.0
63691;BME280;49837;57.280;27.070;2023-04-28T03:57:47;100239.73;;;0.79;93.9
63691;BME280;49837;57.280;27.070;2023-04-28T03:58:48;100236.42;;;0.83;93.9
63691;BME280;49837;57.280;27.070;2023-04-28T03:59:48;100236.34;;;0.93;93.81
63691;BME280;49837;57.280;27.070;2023-04-28T04:00:48;100236.95;;;0.96;93.56
63691;BME280;49837;57.280;27.070;2023-04-28T04:01:49;100234.28;;;0.99;93.34
63691;BME280;49837;57.280;27.070;2023-04-28T04:02:49;100238.25;;;1.02;93.15
63691;BME280;49837;57.280;27.070;2023-04-28T04:03:49;100239.45;;;1.06;93.16
63691;BME280;49837;57.280;27.070;2023-04-28T04:04:50;100240.31;;;1.09;93.15
63691;BME280;49837;57.280;27.070;2023-04-28T04:05:50;100240.23;;;1.12;92.79
63691;BME280;49837;57.280;27.070;2023-04-28T04:06:51;100241.52;;;1.17;92.94
63691;BME280;49837;57.280;27.070;2023-04-28T04:07:51;100240.42;;;1.13;93.09
63691;BME280;49837;57.280;27.070;2023-04-28T04:08:51;100240.2;;;1.17;92.71
63691;BME280;49837;57.280;27.070;2023-04-28T04:09:51;100239.2;;;1.26;92.47
63691;BME280;49837;57.280;27.070;2023-04-28T04:10:52;100238.84;;;1.28;92.41
63691;BME280;49837;57.280;27.070;2023-04-28T04:11:52;100237.87;;;1.31;92.29
63691;BME280;49837;57.280;27.070;2023-04-28T04:12:53;100237.56;;;1.42;91.76
63691;BME280;49837;57.280;27.070;2023-04-28T04:13:53;100235.89;;;1.48;91.72
63691;BME280;49837;57.280;27.070;2023-04-28T04:14:53;100237.16;;;1.54;91.54
63691;BME280;49837;57.280;27.070;2023-04-28T04:15:53;100240.07;;;1.6;91.19
63691;BME280;49837;57.280;27.070;2023-04-28T04:16:54;100241.95;;;1.67;91.15
63691;BME280;49837;57.280;27.070;2023-04-28T04:17:54;100240.17;;;1.7;91.05
63691;BME280;49837;57.280;27.070;2023-04-28T04:18:55;100239.75;;;1.71;91.6
63691;BME280;49837;57.280;27.070;2023-04-28T04:19:55;100242.83;;;1.73;91.83
63691;BME280;49837;57.280;27.070;2023-04-28T04:20:55;100238.84;;;1.69;90.94
63691;BME280;49837;57.280;27.070;2023-04-28T04:21:56;100237.55;;;1.73;90.0
63691;BME280;49837;57.280;27.070;2023-04-28T04:22:56;100238.73;;;1.91;88.88
63691;BME280;49837;57.280;27.070;2023-04-28T04:23:56;100237.48;;;2.01;88.72
63691;BME280;49837;57.280;27.070;2023-04-28T04:24:57;100239.84;;;2.07;88.22
63691;BME280;49837;57.280;27.070;2023-04-28T04:25:57;100242.58;;;2.11;88.1
63691;BME280;49837;57.280;27.070;2023-04-28T04:26:57;100239.39;;;2.15;87.65
63691;BME280;49837;57.280;27.070;2023-04-28T04:27:58;100239.66;;;2.22;87.43
63691;BME280;49837;57.280;27.070;2023-04-28T04:28:59;100245.56;;;2.28;86.69
63691;BME280;49837;57.280;27.070;2023-04-28T04:29:58;100246.95;;;2.32;86.61
63691;BME280;49837;57.280;27.070;2023-04-28T04:30:59;100245.91;;;2.36;86.28
63691;BME280;49837;57.280;27.070;2023-04-28T04:31:59;100245.73;;;2.35;86.48
63691;BME280;49837;57.280;27.070;2023-04-28T04:32:59;100249.98;;;2.27;86.78
63691;BME280;49837;57.280;27.070;2023-04-28T04:34:00;100243.92;;;2.3;85.37
63691;BME280;49837;57.280;27.070;2023-04-28T04:35:00;100241.34;;;2.44;84.53
63691;BME280;49837;57.280;27.070;2023-04-28T04:36:00;100240.63;;;2.54;85.05
63691;BME280;49837;57.280;27.070;2023-04-28T04:37:01;100244.52;;;2.55;85.57
63691;BME280;49837;57.280;27.070;2023-04-28T04:38:02;100245.17;;;2.55;84.31
63691;BME280;49837;57.280;27.070;2023-04-28T04:39:02;100244.21;;;2.64;84.14
63691;BME280;49837;57.280;27.070;2023-04-28T04:40:02;100241.27;;;2.7;83.49
63691;BME280;49837;57.280;27.070;2023-04-28T04:41:02;100243.77;;;2.76;83.43
63691;BME280;49837;57.280;27.070;2023-04-28T04:42:03;100239.74;;;2.76;83.56
63691;BME280;49837;57.280;27.070;2023-04-28T04:43:04;100241.7;;;2.76;83.54
63691;BME280;49837;57.280;27.070;2023-04-28T04:44:05;100240.14;;;2.78;83.83
63691;BME280;49837;57.280;27.070;2023-04-28T04:45:06;100240.51;;;2.85;82.43
63691;BME280;49837;57.280;27.070;2023-04-28T04:46:06;100241.73;;;2.86;81.9
63691;BME280;49837;57.280;27.070;2023-04-28T04:47:06;100239.59;;;2.86;81.65
63691;BME280;49837;57.280;27.070;2023-04-28T04:48:06;100239.75;;;2.87;81.64
63691;BME280;49837;57.280;27.070;2023-04-28T04:49:07;100239.98;;;2.83;81.2
63691;BME280;49837;57.280;27.070;2023-04-28T04:50:07;100235.98;;;2.86;81.41
63691;BME280;49837;57.280;27.070;2023-04-28T04:51:07;100238.47;;;2.92;81.13
63691;BME280;49837;57.280;27.070;2023-04-28T04:52:08;100240.45;;;2.98;81.22
63691;BME280;49837;57.280;27.070;2023-04-28T04:53:08;100243.67;;;3.06;81.34
63691;BME280;49837;57.280;27.070;2023-04-28T04:54:11;100238.73;;;3.09;81.22
63691;BME280;49837;57.280;27.070;2023-04-28T04:55:11;100240.9;;;3.11;81.32
63691;BME280;49837;57.280;27.070;2023-04-28T04:56:12;100244.44;;;3.11;81.46
63691;BME280;49837;57.280;27.070;2023-04-28T04:57:12;100240.14;;;3.16;81.66
63691;BME280;49837;57.280;27.070;2023-04-28T04:58:13;100243.53;;;3.22;81.5
63691;BME280;49837;57.280;27.070;2023-04-28T04:59:13;100246.2;;;3.27;81.33
63691;BME280;49837;57.280;27.070;2023-04-28T05:00:14;100249.56;;;3.32;81.15
63691;BME280;49837;57.280;27.070;2023-04-28T05:01:14;100248.83;;;3.33;80.34
63691;BME280;49837;57.280;27.070;2023-04-28T05:02:14;100252.8;;;3.39;80.52
63691;BME280;49837;57.280;27.070;2023-04-28T05:03:14;100253.23;;;3.47;79.87
63691;BME280;49837;57.280;27.070;2023-04-28T05:04:15;100249.58;;;3.56;79.83
63691;BME280;49837;57.280;27.070;2023-04-28T05:05:15;100247.53;;;3.67;80.17
63691;BME280;49837;57.280;27.070;2023-04-28T05:06:19;100251.16;;;3.69;79.64
63691;BME280;49837;57.280;27.070;2023-04-28T05:07:19;100249.77;;;3.72;79.68
63691;BME280;49837;57.280;27.070;2023-04-28T05:08:19;100251.73;;;3.75;79.83
63691;BME280;49837;57.280;27.070;2023-04-28T05:09:19;100253.53;;;3.82;79.74
63691;BME280;49837;57.280;27.070;2023-04-28T05:10:20;100255.59;;;3.89;79.59
63691;BME280;49837;57.280;27.070;2023-04-28T05:11:20;100254.36;;;3.89;79.3
63691;BME280;49837;57.280;27.070;2023-04-28T05:12:21;100254.38;;;3.88;78.3
63691;BME280;49837;57.280;27.070;2023-04-28T05:13:21;100252.98;;;3.82;77.5
63691;BME280;49837;57.280;27.070;2023-04-28T05:14:21;100255.86;;;3.88;77.7
63691;BME280;49837;57.280;27.070;2023-04-28T05:15:22;100254.43;;;3.9;78.53
63691;BME280;49837;57.280;27.070;2023-04-28T05:16:22;100258.3;;;3.99;78.87
63691;BME280;49837;57.280;27.070;2023-04-28T05:17:23;100254.83;;;4.0;77.35